sensor_id;sensor_type;location;lat;lon;timestamp;P1;durP1;ratioP1;P2;durP2;ratioP2
1344;SDS011;15375;48.540;9.268;2023-07-29T00:00:21;5.00;;;1.47;;
1344;SDS011;15375;48.540;9.268;2023-07-29T00:02:46;2.57;;;1.70;;
1344;SDS011;15375;48.540;9.268;2023-07-29T00:05:12;1.63;;;1.40;;
1344;SDS011;15375;48.540;9.268;2023-07-29T00:07:37;1.50;;;1.40;;
1344;SDS011;15375;48.540;9.268;2023-07-29T00:10:03;2.20;;;2.10;;
1344;SDS011;15375;48.540;9.268;2023-07-29T00:12:28;2.30;;;1.40;;
1344;SDS011;15375;48.540;9.268;2023-07-29T00:14:54;3.63;;;1.50;;
1344;SDS011;15375;48.540;9.268;2023-07-29T00:17:20;3.13;;;1.90;;
1344;SDS011;15375;48.540;9.268;2023-07-29T00:19:45;2.10;;;1.40;;
1344;SDS011;15375;48.540;9.268;2023-07-29T00:22:11;2.50;;;1.53;;
1344;SDS011;15375;48.540;9.268;2023-07-29T00:24:36;1.73;;;1.63;;
1344;SDS011;15375;48.540;9.268;2023-07-29T00:27:02;1.23;;;1.13;;
1344;SDS011;15375;48.540;9.268;2023-07-29T00:29:27;1.83;;;1.73;;
1344;SDS011;15375;48.540;9.268;2023-07-29T00:31:53;3.60;;;1.87;;
1344;SDS011;15375;48.540;9.268;2023-07-29T00:34:18;2.00;;;1.73;;
1344;SDS011;15375;48.540;9.268;2023-07-29T00:36:44;4.10;;;1.43;;
1344;SDS011;15375;48.540;9.268;2023-07-29T00:39:10;1.57;;;1.47;;
1344;SDS011;15375;48.540;9.268;2023-07-29T00:41:36;1.87;;;1.70;;
1344;SDS011;15375;48.540;9.268;2023-07-29T00:44:01;2.17;;;1.53;;
1344;SDS011;15375;48.540;9.268;2023-07-29T00:46:27;3.80;;;1.77;;
1344;SDS011;15375;48.540;9.268;2023-07-29T00:48:54;1.23;;;1.23;;
1344;SDS011;15375;48.540;9.268;2023-07-29T00:51:20;2.80;;;1.97;;
1344;SDS011;15375;48.540;9.268;2023-07-29T00:53:45;2.10;;;1.63;;
1344;SDS011;15375;48.540;9.268;2023-07-29T00:56:11;2.87;;;2.30;;
1344;SDS011;15375;48.540;9.268;2023-07-29T00:58:37;2.80;;;1.57;;
1344;SDS011;15375;48.540;9.268;2023-07-29T01:01:03;1.83;;;1.40;;
1344;SDS011;15375;48.540;9.268;2023-07-29T01:03:28;4.10;;;1.50;;
1344;SDS011;15375;48.540;9.268;2023-07-29T01:06:14;2.10;;;1.27;;
1344;SDS011;15375;48.540;9.268;2023-07-29T01:09:05;3.77;;;1.73;;
1344;SDS011;15375;48.540;9.268;2023-07-29T01:11:41;2.00;;;1.80;;
1344;SDS011;15375;48.540;9.268;2023-07-29T01:17:07;1.30;;;1.20;;
1344;SDS011;15375;48.540;9.268;2023-07-29T01:22:37;3.80;;;1.70;;
1344;SDS011;15375;48.540;9.268;2023-07-29T01:25:03;2.20;;;2.00;;
1344;SDS011;15375;48.540;9.268;2023-07-29T01:27:29;2.03;;;1.83;;
1344;SDS011;15375;48.540;9.268;2023-07-29T01:29:55;3.60;;;1.93;;
1344;SDS011;15375;48.540;9.268;2023-07-29T01:32:43;4.60;;;1.60;;
1344;SDS011;15375;48.540;9.268;2023-07-29T01:35:33;3.20;;;1.63;;
1344;SDS011;15375;48.540;9.268;2023-07-29T01:38:07;2.17;;;1.30;;
1344;SDS011;15375;48.540;9.268;2023-07-29T01:40:38;4.00;;;2.00;;
1344;SDS011;15375;48.540;9.268;2023-07-29T01:43:04;1.90;;;1.50;;
1344;SDS011;15375;48.540;9.268;2023-07-29T01:45:32;2.10;;;1.57;;
1344;SDS011;15375;48.540;9.268;2023-07-29T01:48:01;2.10;;;1.90;;
1344;SDS011;15375;48.540;9.268;2023-07-29T01:50:26;1.93;;;1.83;;
1344;SDS011;15375;48.540;9.268;2023-07-29T01:52:52;3.10;;;1.50;;
1344;SDS011;15375;48.540;9.268;2023-07-29T01:55:17;2.20;;;2.00;;
1344;SDS011;15375;48.540;9.268;2023-07-29T01:57:42;2.77;;;2.10;;
1344;SDS011;15375;48.540;9.268;2023-07-29T02:00:09;1.70;;;1.60;;
1344;SDS011;15375;48.540;9.268;2023-07-29T02:02:35;3.83;;;2.77;;
1344;SDS011;15375;48.540;9.268;2023-07-29T02:05:00;3.57;;;1.97;;
1344;SDS011;15375;48.540;9.268;2023-07-29T02:07:26;1.77;;;1.67;;
1344;SDS011;15375;48.540;9.268;2023-07-29T02:09:51;2.00;;;1.90;;
1344;SDS011;15375;48.540;9.268;2023-07-29T02:12:17;2.17;;;2.07;;
1344;SDS011;15375;48.540;9.268;2023-07-29T02:14:42;3.27;;;1.83;;
1344;SDS011;15375;48.540;9.268;2023-07-29T02:17:07;2.30;;;1.83;;
1344;SDS011;15375;48.540;9.268;2023-07-29T02:19:33;5.00;;;1.70;;
1344;SDS011;15375;48.540;9.268;2023-07-29T02:21:59;2.60;;;1.90;;
1344;SDS011;15375;48.540;9.268;2023-07-29T02:24:24;4.40;;;2.27;;
1344;SDS011;15375;48.540;9.268;2023-07-29T02:26:49;1.60;;;1.50;;
1344;SDS011;15375;48.540;9.268;2023-07-29T02:29:15;2.10;;;1.90;;
1344;SDS011;15375;48.540;9.268;2023-07-29T02:31:40;2.30;;;1.70;;
1344;SDS011;15375;48.540;9.268;2023-07-29T02:34:06;2.30;;;1.90;;
1344;SDS011;15375;48.540;9.268;2023-07-29T02:36:31;5.53;;;2.40;;
1344;SDS011;15375;48.540;9.268;2023-07-29T02:38:56;3.07;;;2.00;;
1344;SDS011;15375;48.540;9.268;2023-07-29T02:41:22;5.03;;;1.90;;
1344;SDS011;15375;48.540;9.268;2023-07-29T02:43:50;3.93;;;2.10;;
1344;SDS011;15375;48.540;9.268;2023-07-29T02:46:16;4.23;;;2.10;;
1344;SDS011;15375;48.540;9.268;2023-07-29T02:48:42;2.00;;;1.80;;
1344;SDS011;15375;48.540;9.268;2023-07-29T02:51:08;2.33;;;1.77;;
1344;SDS011;15375;48.540;9.268;2023-07-29T02:53:33;1.70;;;1.60;;
1344;SDS011;15375;48.540;9.268;2023-07-29T02:55:58;6.00;;;1.73;;
1344;SDS011;15375;48.540;9.268;2023-07-29T02:58:24;1.70;;;1.60;;
1344;SDS011;15375;48.540;9.268;2023-07-29T03:00:51;2.93;;;1.80;;
1344;SDS011;15375;48.540;9.268;2023-07-29T03:03:17;7.03;;;1.60;;
1344;SDS011;15375;48.540;9.268;2023-07-29T03:05:43;2.43;;;2.23;;
1344;SDS011;15375;48.540;9.268;2023-07-29T03:08:09;2.90;;;2.00;;
1344;SDS011;15375;48.540;9.268;2023-07-29T03:10:35;3.20;;;2.10;;
1344;SDS011;15375;48.540;9.268;2023-07-29T03:13:01;3.47;;;2.73;;
1344;SDS011;15375;48.540;9.268;2023-07-29T03:15:26;2.10;;;1.90;;
1344;SDS011;15375;48.540;9.268;2023-07-29T03:17:52;2.70;;;2.50;;
1344;SDS011;15375;48.540;9.268;2023-07-29T03:20:18;2.97;;;2.77;;
1344;SDS011;15375;48.540;9.268;2023-07-29T03:22:44;5.30;;;2.27;;
1344;SDS011;15375;48.540;9.268;2023-07-29T03:25:10;3.53;;;3.23;;
1344;SDS011;15375;48.540;9.268;2023-07-29T03:27:35;5.00;;;2.87;;
1344;SDS011;15375;48.540;9.268;2023-07-29T03:30:02;2.60;;;2.30;;
1344;SDS011;15375;48.540;9.268;2023-07-29T03:32:28;4.50;;;2.77;;
1344;SDS011;15375;48.540;9.268;2023-07-29T03:34:54;4.60;;;3.20;;
1344;SDS011;15375;48.540;9.268;2023-07-29T03:37:19;2.30;;;2.10;;
1344;SDS011;15375;48.540;9.268;2023-07-29T03:39:46;3.20;;;2.57;;
1344;SDS011;15375;48.540;9.268;2023-07-29T03:42:11;2.13;;;2.00;;
1344;SDS011;15375;48.540;9.268;2023-07-29T03:44:37;3.97;;;3.00;;
1344;SDS011;15375;48.540;9.268;2023-07-29T03:47:04;3.50;;;2.43;;
1344;SDS011;15375;48.540;9.268;2023-07-29T03:49:30;3.70;;;2.63;;
1344;SDS011;15375;48.540;9.268;2023-07-29T03:51:55;3.60;;;3.27;;
1344;SDS011;15375;48.540;9.268;2023-07-29T03:54:21;2.70;;;2.50;;
1344;SDS011;15375;48.540;9.268;2023-07-29T03:56:46;3.07;;;2.77;;
1344;SDS011;15375;48.540;9.268;2023-07-29T03:59:11;3.50;;;3.20;;
1344;SDS011;15375;48.540;9.268;2023-07-29T04:01:37;3.13;;;2.90;;
1344;SDS011;15375;48.540;9.268;2023-07-29T04:04:02;3.03;;;2.83;;
1344;SDS011;15375;48.540;9.268;2023-07-29T04:06:28;3.17;;;2.90;;
1344;SDS011;15375;48.540;9.268;2023-07-29T04:08:53;2.30;;;2.10;;
1344;SDS011;15375;48.540;9.268;2023-07-29T04:11:18;3.60;;;2.80;;
1344;SDS011;15375;48.540;9.268;2023-07-29T04:13:44;4.70;;;3.00;;
1344;SDS011;15375;48.540;9.268;2023-07-29T04:16:09;3.50;;;2.77;;
1344;SDS011;15375;48.540;9.268;2023-07-29T04:18:34;2.43;;;2.23;;
1344;SDS011;15375;48.540;9.268;2023-07-29T04:21:00;2.67;;;2.40;;
1344;SDS011;15375;48.540;9.268;2023-07-29T04:23:25;3.50;;;3.03;;
1344;SDS011;15375;48.540;9.268;2023-07-29T04:25:51;2.40;;;2.20;;
1344;SDS011;15375;48.540;9.268;2023-07-29T04:28:16;2.77;;;2.57;;
1344;SDS011;15375;48.540;9.268;2023-07-29T04:30:42;3.50;;;3.10;;
1344;SDS011;15375;48.540;9.268;2023-07-29T04:33:07;6.97;;;3.50;;
1344;SDS011;15375;48.540;9.268;2023-07-29T04:35:33;3.60;;;2.47;;
1344;SDS011;15375;48.540;9.268;2023-07-29T04:37:58;8.07;;;3.07;;
1344;SDS011;15375;48.540;9.268;2023-07-29T04:40:23;2.30;;;2.20;;
1344;SDS011;15375;48.540;9.268;2023-07-29T04:42:49;2.83;;;2.40;;
1344;SDS011;15375;48.540;9.268;2023-07-29T04:45:14;3.40;;;2.73;;
1344;SDS011;15375;48.540;9.268;2023-07-29T04:47:41;4.37;;;2.70;;
1344;SDS011;15375;48.540;9.268;2023-07-29T04:50:06;3.37;;;3.07;;
1344;SDS011;15375;48.540;9.268;2023-07-29T04:52:32;3.57;;;3.00;;
1344;SDS011;15375;48.540;9.268;2023-07-29T04:54:57;3.37;;;2.87;;
1344;SDS011;15375;48.540;9.268;2023-07-29T04:57:23;3.07;;;2.80;;
1344;SDS011;15375;48.540;9.268;2023-07-29T04:59:48;3.70;;;2.77;;
1344;SDS011;15375;48.540;9.268;2023-07-29T05:02:13;2.53;;;2.33;;
1344;SDS011;15375;48.540;9.268;2023-07-29T05:04:39;4.83;;;3.33;;
1344;SDS011;15375;48.540;9.268;2023-07-29T05:07:04;3.20;;;2.90;;
1344;SDS011;15375;48.540;9.268;2023-07-29T05:09:30;3.60;;;3.00;;
1344;SDS011;15375;48.540;9.268;2023-07-29T05:11:55;3.00;;;2.70;;
1344;SDS011;15375;48.540;9.268;2023-07-29T05:14:20;3.73;;;2.63;;
1344;SDS011;15375;48.540;9.268;2023-07-29T05:16:46;4.60;;;3.17;;
1344;SDS011;15375;48.540;9.268;2023-07-29T05:19:11;3.70;;;2.47;;
1344;SDS011;15375;48.540;9.268;2023-07-29T05:21:37;3.53;;;2.53;;
1344;SDS011;15375;48.540;9.268;2023-07-29T05:24:03;2.63;;;2.10;;
1344;SDS011;15375;48.540;9.268;2023-07-29T05:26:28;2.63;;;2.00;;
1344;SDS011;15375;48.540;9.268;2023-07-29T05:28:54;2.03;;;1.80;;
1344;SDS011;15375;48.540;9.268;2023-07-29T05:31:19;5.43;;;2.77;;
1344;SDS011;15375;48.540;9.268;2023-07-29T05:33:45;5.30;;;2.63;;
1344;SDS011;15375;48.540;9.268;2023-07-29T05:36:10;2.20;;;2.00;;
1344;SDS011;15375;48.540;9.268;2023-07-29T05:38:36;3.20;;;2.67;;
1344;SDS011;15375;48.540;9.268;2023-07-29T05:41:01;2.00;;;1.90;;
1344;SDS011;15375;48.540;9.268;2023-07-29T05:43:27;2.27;;;1.73;;
1344;SDS011;15375;48.540;9.268;2023-07-29T05:45:52;2.20;;;2.00;;
1344;SDS011;15375;48.540;9.268;2023-07-29T05:48:19;2.40;;;2.20;;
1344;SDS011;15375;48.540;9.268;2023-07-29T05:50:44;2.20;;;2.00;;
1344;SDS011;15375;48.540;9.268;2023-07-29T05:53:10;1.90;;;1.80;;
1344;SDS011;15375;48.540;9.268;2023-07-29T05:55:35;2.40;;;2.00;;
1344;SDS011;15375;48.540;9.268;2023-07-29T05:58:01;5.30;;;1.97;;
1344;SDS011;15375;48.540;9.268;2023-07-29T06:00:26;1.87;;;1.77;;
1344;SDS011;15375;48.540;9.268;2023-07-29T06:02:52;3.23;;;1.80;;
1344;SDS011;15375;48.540;9.268;2023-07-29T06:05:17;1.80;;;1.33;;
1344;SDS011;15375;48.540;9.268;2023-07-29T06:07:43;1.80;;;1.70;;
1344;SDS011;15375;48.540;9.268;2023-07-29T06:10:10;2.10;;;1.90;;
1344;SDS011;15375;48.540;9.268;2023-07-29T06:12:38;1.80;;;1.70;;
1344;SDS011;15375;48.540;9.268;2023-07-29T06:15:04;2.43;;;2.00;;
1344;SDS011;15375;48.540;9.268;2023-07-29T06:17:30;3.33;;;2.27;;
1344;SDS011;15375;48.540;9.268;2023-07-29T06:19:55;1.97;;;1.77;;
1344;SDS011;15375;48.540;9.268;2023-07-29T06:22:21;1.93;;;1.83;;
1344;SDS011;15375;48.540;9.268;2023-07-29T06:24:46;3.33;;;1.47;;
1344;SDS011;15375;48.540;9.268;2023-07-29T06:27:12;2.20;;;2.00;;
1344;SDS011;15375;48.540;9.268;2023-07-29T06:29:37;4.37;;;1.70;;
1344;SDS011;15375;48.540;9.268;2023-07-29T06:32:03;2.50;;;1.70;;
1344;SDS011;15375;48.540;9.268;2023-07-29T06:34:28;2.27;;;2.07;;
1344;SDS011;15375;48.540;9.268;2023-07-29T06:36:54;4.47;;;2.00;;
1344;SDS011;15375;48.540;9.268;2023-07-29T06:39:19;1.97;;;1.57;;
1344;SDS011;15375;48.540;9.268;2023-07-29T06:41:45;5.23;;;1.80;;
1344;SDS011;15375;48.540;9.268;2023-07-29T06:44:10;1.90;;;1.80;;
1344;SDS011;15375;48.540;9.268;2023-07-29T06:46:35;2.60;;;2.17;;
1344;SDS011;15375;48.540;9.268;2023-07-29T06:49:01;2.23;;;2.00;;
1344;SDS011;15375;48.540;9.268;2023-07-29T06:51:26;1.80;;;1.70;;
1344;SDS011;15375;48.540;9.268;2023-07-29T06:53:54;3.20;;;1.77;;
1344;SDS011;15375;48.540;9.268;2023-07-29T06:56:19;2.43;;;2.17;;
1344;SDS011;15375;48.540;9.268;2023-07-29T06:58:45;2.50;;;2.30;;
1344;SDS011;15375;48.540;9.268;2023-07-29T07:01:10;6.90;;;2.13;;
1344;SDS011;15375;48.540;9.268;2023-07-29T07:03:36;2.43;;;2.00;;
1344;SDS011;15375;48.540;9.268;2023-07-29T07:06:01;6.10;;;2.73;;
1344;SDS011;15375;48.540;9.268;2023-07-29T07:08:26;5.30;;;2.00;;
1344;SDS011;15375;48.540;9.268;2023-07-29T07:10:52;4.20;;;2.27;;
1344;SDS011;15375;48.540;9.268;2023-07-29T07:13:17;3.03;;;2.40;;
1344;SDS011;15375;48.540;9.268;2023-07-29T07:15:43;5.73;;;3.10;;
1344;SDS011;15375;48.540;9.268;2023-07-29T07:18:10;5.80;;;3.20;;
1344;SDS011;15375;48.540;9.268;2023-07-29T07:20:35;9.97;;;5.53;;
1344;SDS011;15375;48.540;9.268;2023-07-29T07:23:01;8.83;;;4.80;;
1344;SDS011;15375;48.540;9.268;2023-07-29T07:25:28;13.37;;;5.20;;
1344;SDS011;15375;48.540;9.268;2023-07-29T07:27:53;4.10;;;3.63;;
1344;SDS011;15375;48.540;9.268;2023-07-29T07:30:18;4.93;;;3.27;;
1344;SDS011;15375;48.540;9.268;2023-07-29T07:32:44;6.70;;;5.27;;
1344;SDS011;15375;48.540;9.268;2023-07-29T07:35:10;3.80;;;3.40;;
1344;SDS011;15375;48.540;9.268;2023-07-29T07:37:35;4.20;;;2.87;;
1344;SDS011;15375;48.540;9.268;2023-07-29T07:40:01;4.47;;;3.77;;
1344;SDS011;15375;48.540;9.268;2023-07-29T07:42:26;6.20;;;4.00;;
1344;SDS011;15375;48.540;9.268;2023-07-29T07:44:52;2.73;;;2.40;;
1344;SDS011;15375;48.540;9.268;2023-07-29T07:47:17;4.03;;;2.73;;
1344;SDS011;15375;48.540;9.268;2023-07-29T07:49:43;5.33;;;3.10;;
1344;SDS011;15375;48.540;9.268;2023-07-29T07:52:08;5.17;;;2.73;;
1344;SDS011;15375;48.540;9.268;2023-07-29T07:54:34;3.57;;;2.90;;
1344;SDS011;15375;48.540;9.268;2023-07-29T07:56:59;6.00;;;2.33;;
1344;SDS011;15375;48.540;9.268;2023-07-29T07:59:25;3.27;;;2.50;;
1344;SDS011;15375;48.540;9.268;2023-07-29T08:01:50;2.67;;;2.47;;
1344;SDS011;15375;48.540;9.268;2023-07-29T08:04:17;4.23;;;2.37;;
1344;SDS011;15375;48.540;9.268;2023-07-29T08:06:42;3.23;;;2.67;;
1344;SDS011;15375;48.540;9.268;2023-07-29T08:09:08;3.10;;;2.30;;
1344;SDS011;15375;48.540;9.268;2023-07-29T08:11:33;2.60;;;2.40;;
1344;SDS011;15375;48.540;9.268;2023-07-29T08:13:59;2.07;;;1.97;;
1344;SDS011;15375;48.540;9.268;2023-07-29T08:16:24;2.00;;;1.90;;
1344;SDS011;15375;48.540;9.268;2023-07-29T08:18:50;2.20;;;2.00;;
1344;SDS011;15375;48.540;9.268;2023-07-29T08:21:15;2.57;;;2.10;;
1344;SDS011;15375;48.540;9.268;2023-07-29T08:23:41;3.10;;;2.50;;
1344;SDS011;15375;48.540;9.268;2023-07-29T08:26:06;1.93;;;1.83;;
1344;SDS011;15375;48.540;9.268;2023-07-29T08:28:36;3.10;;;1.70;;
1344;SDS011;15375;48.540;9.268;2023-07-29T08:31:02;2.10;;;1.80;;
1344;SDS011;15375;48.540;9.268;2023-07-29T08:33:28;2.73;;;2.07;;
1344;SDS011;15375;48.540;9.268;2023-07-29T08:35:54;2.77;;;1.67;;
1344;SDS011;15375;48.540;9.268;2023-07-29T08:38:20;2.40;;;2.20;;
1344;SDS011;15375;48.540;9.268;2023-07-29T08:40:50;3.03;;;2.73;;
1344;SDS011;15375;48.540;9.268;2023-07-29T08:43:23;2.63;;;2.40;;
1344;SDS011;15375;48.540;9.268;2023-07-29T08:45:56;2.80;;;2.60;;
1344;SDS011;15375;48.540;9.268;2023-07-29T08:48:23;3.33;;;2.47;;
1344;SDS011;15375;48.540;9.268;2023-07-29T08:51:05;1.93;;;1.83;;
1344;SDS011;15375;48.540;9.268;2023-07-29T08:53:34;3.27;;;2.30;;
1344;SDS011;15375;48.540;9.268;2023-07-29T08:56:02;2.37;;;2.27;;
1344;SDS011;15375;48.540;9.268;2023-07-29T08:58:30;2.37;;;2.20;;
1344;SDS011;15375;48.540;9.268;2023-07-29T09:00:56;2.77;;;2.53;;
1344;SDS011;15375;48.540;9.268;2023-07-29T09:03:21;3.57;;;2.47;;
1344;SDS011;15375;48.540;9.268;2023-07-29T09:05:47;2.90;;;2.50;;
1344;SDS011;15375;48.540;9.268;2023-07-29T09:08:13;4.73;;;2.77;;
1344;SDS011;15375;48.540;9.268;2023-07-29T09:10:39;3.47;;;2.77;;
1344;SDS011;15375;48.540;9.268;2023-07-29T09:13:05;3.23;;;2.93;;
1344;SDS011;15375;48.540;9.268;2023-07-29T09:15:33;2.60;;;2.40;;
1344;SDS011;15375;48.540;9.268;2023-07-29T09:18:02;3.07;;;2.70;;
1344;SDS011;15375;48.540;9.268;2023-07-29T09:20:34;2.60;;;2.23;;
1344;SDS011;15375;48.540;9.268;2023-07-29T09:23:00;5.10;;;2.60;;
1344;SDS011;15375;48.540;9.268;2023-07-29T09:25:26;2.50;;;2.30;;
1344;SDS011;15375;48.540;9.268;2023-07-29T09:27:52;2.57;;;2.37;;
1344;SDS011;15375;48.540;9.268;2023-07-29T09:30:23;3.77;;;2.57;;
1344;SDS011;15375;48.540;9.268;2023-07-29T09:32:52;3.03;;;2.73;;
1344;SDS011;15375;48.540;9.268;2023-07-29T09:35:20;3.40;;;2.93;;
1344;SDS011;15375;48.540;9.268;2023-07-29T09:37:45;3.27;;;2.80;;
1344;SDS011;15375;48.540;9.268;2023-07-29T09:40:14;3.77;;;2.93;;
1344;SDS011;15375;48.540;9.268;2023-07-29T09:42:47;3.07;;;2.87;;
1344;SDS011;15375;48.540;9.268;2023-07-29T09:45:20;3.90;;;2.20;;
1344;SDS011;15375;48.540;9.268;2023-07-29T09:47:50;2.83;;;2.63;;
1344;SDS011;15375;48.540;9.268;2023-07-29T09:50:17;4.97;;;3.13;;
1344;SDS011;15375;48.540;9.268;2023-07-29T09:52:43;2.73;;;2.43;;
1344;SDS011;15375;48.540;9.268;2023-07-29T09:55:12;3.00;;;2.80;;
1344;SDS011;15375;48.540;9.268;2023-07-29T09:57:42;4.43;;;3.27;;
1344;SDS011;15375;48.540;9.268;2023-07-29T10:00:10;3.93;;;2.63;;
1344;SDS011;15375;48.540;9.268;2023-07-29T10:02:40;3.63;;;2.93;;
1344;SDS011;15375;48.540;9.268;2023-07-29T10:05:07;4.07;;;3.67;;
1344;SDS011;15375;48.540;9.268;2023-07-29T10:07:37;3.40;;;3.10;;
1344;SDS011;15375;48.540;9.268;2023-07-29T10:10:07;4.17;;;3.40;;
1344;SDS011;15375;48.540;9.268;2023-07-29T10:12:35;4.33;;;3.23;;
1344;SDS011;15375;48.540;9.268;2023-07-29T10:15:02;4.07;;;3.17;;
1344;SDS011;15375;48.540;9.268;2023-07-29T10:17:29;3.60;;;3.27;;
1344;SDS011;15375;48.540;9.268;2023-07-29T10:19:55;3.90;;;3.13;;
1344;SDS011;15375;48.540;9.268;2023-07-29T10:22:25;3.33;;;3.13;;
1344;SDS011;15375;48.540;9.268;2023-07-29T10:24:54;4.10;;;3.70;;
1344;SDS011;15375;48.540;9.268;2023-07-29T10:27:24;3.00;;;2.30;;
1344;SDS011;15375;48.540;9.268;2023-07-29T10:29:52;2.97;;;2.73;;
1344;SDS011;15375;48.540;9.268;2023-07-29T10:32:20;3.20;;;2.90;;
1344;SDS011;15375;48.540;9.268;2023-07-29T10:34:50;4.00;;;2.57;;
1344;SDS011;15375;48.540;9.268;2023-07-29T10:37:15;2.50;;;2.30;;
1344;SDS011;15375;48.540;9.268;2023-07-29T10:39:51;3.63;;;2.63;;
1344;SDS011;15375;48.540;9.268;2023-07-29T10:42:20;3.60;;;3.30;;
1344;SDS011;15375;48.540;9.268;2023-07-29T10:44:47;2.63;;;2.43;;
1344;SDS011;15375;48.540;9.268;2023-07-29T10:47:20;2.83;;;2.57;;
1344;SDS011;15375;48.540;9.268;2023-07-29T10:49:56;4.50;;;2.40;;
1344;SDS011;15375;48.540;9.268;2023-07-29T10:52:39;3.43;;;2.50;;
1344;SDS011;15375;48.540;9.268;2023-07-29T10:55:22;3.13;;;2.93;;
1344;SDS011;15375;48.540;9.268;2023-07-29T10:57:48;3.03;;;2.83;;
1344;SDS011;15375;48.540;9.268;2023-07-29T11:00:15;3.13;;;2.33;;
1344;SDS011;15375;48.540;9.268;2023-07-29T11:02:56;3.00;;;2.53;;
1344;SDS011;15375;48.540;9.268;2023-07-29T11:05:26;3.23;;;2.77;;
1344;SDS011;15375;48.540;9.268;2023-07-29T11:07:52;4.43;;;2.77;;
1344;SDS011;15375;48.540;9.268;2023-07-29T11:10:17;3.17;;;2.97;;
1344;SDS011;15375;48.540;9.268;2023-07-29T11:12:47;3.63;;;2.57;;
1344;SDS011;15375;48.540;9.268;2023-07-29T11:15:17;3.63;;;2.47;;
1344;SDS011;15375;48.540;9.268;2023-07-29T11:17:54;2.57;;;2.37;;
1344;SDS011;15375;48.540;9.268;2023-07-29T11:20:25;2.80;;;2.60;;
1344;SDS011;15375;48.540;9.268;2023-07-29T11:23:02;2.60;;;2.40;;
1344;SDS011;15375;48.540;9.268;2023-07-29T11:25:29;3.00;;;2.80;;
1344;SDS011;15375;48.540;9.268;2023-07-29T11:27:57;3.20;;;2.60;;
1344;SDS011;15375;48.540;9.268;2023-07-29T11:30:26;3.50;;;2.83;;
1344;SDS011;15375;48.540;9.268;2023-07-29T11:32:53;2.83;;;2.63;;
1344;SDS011;15375;48.540;9.268;2023-07-29T11:35:20;2.63;;;2.30;;
1344;SDS011;15375;48.540;9.268;2023-07-29T11:37:46;2.97;;;2.77;;
1344;SDS011;15375;48.540;9.268;2023-07-29T11:40:17;3.40;;;3.10;;
1344;SDS011;15375;48.540;9.268;2023-07-29T11:42:44;2.80;;;2.60;;
1344;SDS011;15375;48.540;9.268;2023-07-29T11:45:12;3.23;;;2.77;;
1344;SDS011;15375;48.540;9.268;2023-07-29T11:47:39;5.27;;;2.83;;
1344;SDS011;15375;48.540;9.268;2023-07-29T11:50:05;2.90;;;2.60;;
1344;SDS011;15375;48.540;9.268;2023-07-29T11:52:34;2.47;;;2.30;;
1344;SDS011;15375;48.540;9.268;2023-07-29T11:55:04;3.40;;;2.97;;
1344;SDS011;15375;48.540;9.268;2023-07-29T11:57:31;2.27;;;2.10;;
1344;SDS011;15375;48.540;9.268;2023-07-29T12:00:01;2.83;;;2.07;;
1344;SDS011;15375;48.540;9.268;2023-07-29T12:02:31;2.10;;;1.90;;
1344;SDS011;15375;48.540;9.268;2023-07-29T12:04:58;2.67;;;2.17;;
1344;SDS011;15375;48.540;9.268;2023-07-29T12:07:24;2.10;;;1.63;;
1344;SDS011;15375;48.540;9.268;2023-07-29T12:09:52;2.03;;;1.87;;
1344;SDS011;15375;48.540;9.268;2023-07-29T12:12:18;1.63;;;1.53;;
1344;SDS011;15375;48.540;9.268;2023-07-29T12:14:47;2.37;;;2.17;;
1344;SDS011;15375;48.540;9.268;2023-07-29T12:17:14;3.87;;;2.17;;
1344;SDS011;15375;48.540;9.268;2023-07-29T12:19:42;2.10;;;1.97;;
1344;SDS011;15375;48.540;9.268;2023-07-29T12:22:08;1.90;;;1.80;;
1344;SDS011;15375;48.540;9.268;2023-07-29T12:24:36;10.90;;;2.10;;
1344;SDS011;15375;48.540;9.268;2023-07-29T12:27:03;6.13;;;2.37;;
1344;SDS011;15375;48.540;9.268;2023-07-29T12:29:29;2.37;;;2.10;;
1344;SDS011;15375;48.540;9.268;2023-07-29T12:32:01;2.90;;;2.63;;
1344;SDS011;15375;48.540;9.268;2023-07-29T12:34:32;2.47;;;2.27;;
1344;SDS011;15375;48.540;9.268;2023-07-29T12:36:58;3.90;;;2.50;;
1344;SDS011;15375;48.540;9.268;2023-07-29T12:39:31;2.80;;;2.30;;
1344;SDS011;15375;48.540;9.268;2023-07-29T12:41:58;2.73;;;2.53;;
1344;SDS011;15375;48.540;9.268;2023-07-29T12:44:32;2.73;;;2.53;;
1344;SDS011;15375;48.540;9.268;2023-07-29T12:47:01;2.47;;;2.27;;
1344;SDS011;15375;48.540;9.268;2023-07-29T12:49:28;2.80;;;2.60;;
1344;SDS011;15375;48.540;9.268;2023-07-29T12:51:55;3.10;;;2.80;;
1344;SDS011;15375;48.540;9.268;2023-07-29T12:54:21;3.00;;;2.80;;
1344;SDS011;15375;48.540;9.268;2023-07-29T12:56:47;2.27;;;2.03;;
1344;SDS011;15375;48.540;9.268;2023-07-29T12:59:12;3.23;;;3.00;;
1344;SDS011;15375;48.540;9.268;2023-07-29T13:01:40;3.20;;;2.90;;
1344;SDS011;15375;48.540;9.268;2023-07-29T13:04:06;3.33;;;3.03;;
1344;SDS011;15375;48.540;9.268;2023-07-29T13:06:31;2.60;;;2.40;;
1344;SDS011;15375;48.540;9.268;2023-07-29T13:08:57;3.07;;;2.77;;
1344;SDS011;15375;48.540;9.268;2023-07-29T13:11:22;9.50;;;2.73;;
1344;SDS011;15375;48.540;9.268;2023-07-29T13:13:49;4.13;;;2.53;;
1344;SDS011;15375;48.540;9.268;2023-07-29T13:16:17;2.50;;;2.30;;
1344;SDS011;15375;48.540;9.268;2023-07-29T13:18:43;2.40;;;2.20;;
1344;SDS011;15375;48.540;9.268;2023-07-29T13:21:09;3.17;;;2.70;;
1344;SDS011;15375;48.540;9.268;2023-07-29T13:23:34;2.77;;;2.57;;
1344;SDS011;15375;48.540;9.268;2023-07-29T13:26:00;3.40;;;3.10;;
1344;SDS011;15375;48.540;9.268;2023-07-29T13:28:26;2.93;;;2.63;;
1344;SDS011;15375;48.540;9.268;2023-07-29T13:30:54;3.03;;;2.73;;
1344;SDS011;15375;48.540;9.268;2023-07-29T13:33:20;2.87;;;2.67;;
1344;SDS011;15375;48.540;9.268;2023-07-29T13:35:46;2.90;;;2.70;;
1344;SDS011;15375;48.540;9.268;2023-07-29T13:38:11;2.90;;;2.70;;
1344;SDS011;15375;48.540;9.268;2023-07-29T13:40:37;3.00;;;2.80;;
1344;SDS011;15375;48.540;9.268;2023-07-29T13:43:02;2.80;;;2.60;;
1344;SDS011;15375;48.540;9.268;2023-07-29T13:45:28;2.93;;;2.73;;
1344;SDS011;15375;48.540;9.268;2023-07-29T13:47:54;2.97;;;2.73;;
1344;SDS011;15375;48.540;9.268;2023-07-29T13:50:19;3.27;;;2.97;;
1344;SDS011;15375;48.540;9.268;2023-07-29T13:52:44;3.30;;;2.40;;
1344;SDS011;15375;48.540;9.268;2023-07-29T13:55:10;2.80;;;2.60;;
1344;SDS011;15375;48.540;9.268;2023-07-29T13:57:36;3.00;;;2.70;;
1344;SDS011;15375;48.540;9.268;2023-07-29T14:00:04;2.83;;;2.60;;
1344;SDS011;15375;48.540;9.268;2023-07-29T14:02:30;2.90;;;2.70;;
1344;SDS011;15375;48.540;9.268;2023-07-29T14:04:56;2.60;;;2.40;;
1344;SDS011;15375;48.540;9.268;2023-07-29T14:07:25;3.40;;;3.10;;
1344;SDS011;15375;48.540;9.268;2023-07-29T14:09:53;2.87;;;2.67;;
1344;SDS011;15375;48.540;9.268;2023-07-29T14:12:18;6.07;;;3.47;;
1344;SDS011;15375;48.540;9.268;2023-07-29T14:14:43;3.50;;;3.10;;
1344;SDS011;15375;48.540;9.268;2023-07-29T14:17:09;3.13;;;2.93;;
1344;SDS011;15375;48.540;9.268;2023-07-29T14:19:35;3.10;;;2.80;;
1344;SDS011;15375;48.540;9.268;2023-07-29T14:22:01;3.20;;;3.00;;
1344;SDS011;15375;48.540;9.268;2023-07-29T14:24:26;7.30;;;3.43;;
1344;SDS011;15375;48.540;9.268;2023-07-29T14:26:52;3.00;;;2.80;;
1344;SDS011;15375;48.540;9.268;2023-07-29T14:29:17;3.03;;;2.83;;
1344;SDS011;15375;48.540;9.268;2023-07-29T14:31:49;3.30;;;2.70;;
1344;SDS011;15375;48.540;9.268;2023-07-29T14:34:14;3.03;;;2.83;;
1344;SDS011;15375;48.540;9.268;2023-07-29T14:36:40;2.97;;;2.40;;
1344;SDS011;15375;48.540;9.268;2023-07-29T14:39:05;2.87;;;2.60;;
1344;SDS011;15375;48.540;9.268;2023-07-29T14:41:31;3.17;;;2.87;;
1344;SDS011;15375;48.540;9.268;2023-07-29T14:43:56;3.00;;;2.80;;
1344;SDS011;15375;48.540;9.268;2023-07-29T14:46:22;3.20;;;2.90;;
1344;SDS011;15375;48.540;9.268;2023-07-29T14:48:48;2.30;;;2.10;;
1344;SDS011;15375;48.540;9.268;2023-07-29T14:51:13;3.33;;;2.47;;
1344;SDS011;15375;48.540;9.268;2023-07-29T14:53:39;2.90;;;2.70;;
1344;SDS011;15375;48.540;9.268;2023-07-29T14:56:04;3.03;;;2.40;;
1344;SDS011;15375;48.540;9.268;2023-07-29T14:58:30;2.60;;;2.40;;
1344;SDS011;15375;48.540;9.268;2023-07-29T15:00:55;3.13;;;2.63;;
1344;SDS011;15375;48.540;9.268;2023-07-29T15:03:21;2.90;;;2.60;;